METAR Data
IDs: Format: Raw Decoded Include TAF

Data at: 2125 UTC 24 Mar 2019

KCOT 242053Z AUTO 00000KT 10SM OVC038 26/18 A2999 RMK AO2 SLP148 T02610178 56028
KCOT 241953Z AUTO 08005KT 10SM OVC031 26/18 A3001 RMK AO2 SLP157 T02560183
KCOT 241853Z AUTO 16007KT 10SM BKN023 24/18 A3004 RMK AO2 SLP167 T02440183
KCOT 241753Z AUTO 13006KT 10SM OVC017 22/18 A3007 RMK AO2 SLP177 T02220178 10222 20183 58005
KCOT 241653Z AUTO 15007KT 10SM OVC015 21/18 A3008 RMK AO2 SLP181 T02110178
KCOT 241612Z AUTO 15007KT 10SM OVC015 21/18 A3009 RMK AO2 T02060178
KCOT 241553Z AUTO 15006KT 10SM OVC014 21/18 A3009 RMK AO2 SLP182 T02060178
KCOT 241453Z AUTO 12008KT 10SM OVC014 20/18 A3009 RMK AO2 SLP182 T02000178 53015
KCOT 241353Z AUTO 12004KT 10SM OVC014 19/17 A3007 RMK AO2 SLP175 T01940172
KCOT 241253Z AUTO 14003KT 10SM OVC014 18/17 A3005 RMK AO2 SLP170 T01830172
KCOT 241153Z AUTO 13004KT 10SM OVC012 18/17 A3004 RMK AO2 SLP166 T01830172 10183 20167 53011
KCOT 241053Z AUTO 15006KT 10SM OVC011 18/17 A3002 RMK AO2 SLP160 T01830172
KCOT 240953Z AUTO 15008KT 10SM OVC012 18/17 A3001 RMK AO2 SLP156 T01780172
KCOT 240928Z AUTO 13007KT 9SM BKN013 17/17 A3001 RMK AO2 T01670167
KCOT 240853Z AUTO 12008KT 10SM CLR 17/17 A3001 RMK AO2 SLP155 T01670167 56010
KCOT 240753Z AUTO 13008KT 10SM CLR 17/17 A3001 RMK AO2 SLP157 T01670167
KCOT 240653Z AUTO 11006KT 10SM CLR 17/17 A3003 RMK AO2 SLP164 T01670167
KCOT 240553Z AUTO 13008KT 10SM CLR 17/17 A3004 RMK AO2 SLP167 T01720167 10239 20172 402610156 58007
KCOT 240453Z AUTO 14010KT 10SM CLR 18/17 A3004 RMK AO2 SLP167 T01830167
KCOT 240421Z AUTO 13010KT 10SM SCT028 19/17 A3006 RMK AO2 T01890167
KCOT 240353Z AUTO 13010KT 10SM FEW020 BKN029 OVC049 20/17 A3006 RMK AO2 SLP174 T02000167
KCOT 240253Z AUTO 13013KT 10SM SCT023 OVC031 21/17 A3005 RMK AO2 SLP168 T02060172 53026
KCOT 240153Z AUTO 13011KT 10SM FEW032 22/17 A3002 RMK AO2 SLP158 T02170167
KCOT 240053Z AUTO 13012KT 10SM FEW038 BKN046 BKN055 23/17 A2998 RMK AO2 SLP147 T02280167
KCOT 232353Z AUTO 12014G20KT 10SM BKN041 BKN055 24/17 A2997 RMK AO2 SLP142 T02390167 10261 20217 55010
KCOT 232253Z AUTO 14013KT 10SM SCT043 BKN050 BKN060 24/16 A2996 RMK AO2 SLP137 T02440161
KCOT 232153Z AUTO 00000KT 10SM FEW035 OVC060 24/16 A2998 RMK AO2 SLP147 T02440161
KCOT 232053Z AUTO 16008KT 10SM FEW030 OVC055 24/16 A3000 RMK AO2 SLP152 T02390161 58020
KCOT 231953Z AUTO 14010KT 10SM FEW041 OVC049 23/16 A3002 RMK AO2 SLP161 T02280161
KCOT 231853Z AUTO 16008KT 10SM SCT026 OVC045 22/17 A3004 RMK AO2 SLP166 T02220167
KCOT 231834Z AUTO 17007KT 10SM SCT026 BKN032 OVC043 22/17 A3005 RMK AO2 T02220167
KCOT 231753Z AUTO 14009KT 10SM BKN024 OVC041 22/17 A3006 RMK AO2 SLP173 T02170167 10217 20161 57001
KCOT 231740Z AUTO 16006KT 10SM SCT024 OVC041 22/17 A3006 RMK AO2 T02170167
KCOT 231653Z AUTO 16010KT 10SM OVC020 21/17 A3006 RMK AO2 SLP173 T02110167
KCOT 231553Z AUTO 15013KT 10SM OVC016 20/17 A3006 RMK AO2 SLP173 T02000167
KCOT 231541Z AUTO 16007KT 10SM BKN015 OVC038 20/17 A3006 RMK AO2 T02000167
KCOT 231453Z AUTO 14009KT 10SM SCT026 OVC032 19/16 A3007 RMK AO2 SLP176 T01890161 51018
KCOT 231353Z AUTO 12005KT 10SM OVC029 18/16 A3006 RMK AO2 SLP175 T01780161
KCOT 231253Z AUTO 12004KT 10SM BKN017 OVC043 17/16 A3004 RMK AO2 SLP167 T01720161
KCOT 231245Z AUTO 12004KT 10SM BKN018 OVC043 17/16 A3004 RMK AO2 T01720156
KCOT 231153Z AUTO 13004KT 10SM SCT030 OVC042 16/16 A3001 RMK AO2 SLP158 T01610156 10189 20156 53008
KCOT 231053Z AUTO 14006KT 10SM FEW018 FEW040 16/15 A2999 RMK AO2 SLP151 T01610150
KCOT 230953Z AUTO 15010KT 10SM FEW033 18/16 A2996 RMK AO2 SLP139 T01780156